New Hill, NC

3:59 AM EST on November 28, 2014 (GMT -0500)
Bella Casa | Change Station
CLOSE
Current Station
Personal Weather Station
Location: Apex, NC
Elevation: 318 ft
Nearby Weather Stations

Elev 318 ft 35.72 °N, 78.90 °W | Updated 40 seconds ago

Clear
Clear
29.5 °F
Feels Like 30 °F
N
0.0
Wind Variable Wind from ESE
Gusts 1.0 mph

Today
High -- | Low -- °F
--% Chance of Precip.
Yesterday
High -- | Low -- °F
Precip. -- in
7:04 AM 5:02 PM
Waxing Crescent, 38% visible
Pressure 30.30 in
Visibility 10.0 miles
Clouds Clear
Windchill 30 °F
Dew Point 26 °F
Humidity 85%
Rainfall 0.00 in
Snow Depth Not available.
UV 0 out of 12
Pollen .10 out of 12
Air Quality Not available.
Flu Activity Not available.
METAR KTTA 280835Z AUTO 00000KT 10SM CLR M02/M02 A3030 RMK AO2 T10211025

More Conditions Fewer Conditions

Pressure 30.30 in
Visibility 10.0 miles
Clouds Clear
Windchill 30 °F
Dew Point 26 °F
Humidity 85%
Rainfall 0.00 in
Snow Depth Not available.
UV 0 out of 12
Pollen .10 out of 12
Air Quality Not available.
Flu Activity Not available.
METAR KTTA 280835Z AUTO 00000KT 10SM CLR M02/M02 A3030 RMK AO2 T10211025

More Conditions Fewer Conditions

10-Day Weather Forecast

Almanac

Astronomy

Nov. 28, 2014 Rise Set
Actual Time
Civil Twilight
Nautical Twilight
Astronomical Twilight
Moon
Length of Visible Light
Length of Day
Tomorrow will be .
, % of the Moon is Illuminated

Today's Extremes

State Highs State Lows

Community

WunderPhotos

Upload Photos

1,774,190 photos uploaded!

WunderBlogs® & News

Nearby

Air Quality

  Air Quality AQ Index Pollutant
Not available.

Snow Depth

Station Depth Elevation

Earthquake Activity

City Distance Mag. Time & Date
Minimum magnitude displayed is 2.5.

Coastal Water Temperatures

Place Temperature

Nearby Weather Stations